F/V Jeremi Simon — FHAF — position and weather

sailwx.info

Track history (hours):
 
Tides and Currents Weather Stations Pressure Air Temp Water Temp Dewpoint Dewpoint Depression Visibility Wind Speed Wind Dir Waves Ship Positions

F/V Jeremi Simon

Last reported at 2016-May-12 10:33 UTC. Time now 2016-May-24 07:59 UTC.
Position N 46°09' W 001°13'.
Warning: this ship's position is 11 days out of date.

Length 20 m.

Type: Other ship. MMSI: 227415000.

Date/timePositionNaut miles runAvg speedWind from/ knotsBaromVisibWave heightAir tempDewpointWater temp
2016-May-12 10:33N 46°09' W 001°13'  
2016-May-09 06:22N 46°09' W 001°13'0 0.0
2016-May-09 05:33N 46°09' W 001°13'0 0.0
2016-May-09 04:33N 46°09' W 001°13'1 1.2
2016-May-09 03:33N 46°09' W 001°15'0 0.3
2016-May-09 02:33N 46°09' W 001°15'5 4.5
2016-May-09 01:33N 46°07' W 001°20'1110.4
2016-May-09 00:32N 46°11' W 001°34'8 8.0
2016-May-08 23:33N 46°17' W 001°41'8 8.5
2016-May-08 22:33N 46°24' W 001°48'8 8.1
2016-May-08 21:33N 46°31' W 001°53'9 8.6
2016-May-08 20:33N 46°40' W 001°57'  
2016-May-04 03:06N 46°42' W 001°57'0 0.1
2016-May-04 02:33N 46°42' W 001°56'0 0.0
2016-May-04 01:33N 46°42' W 001°56'0 0.0
2016-May-04 00:33N 46°42' W 001°57'8 7.6
2016-May-03 23:33N 46°34' W 001°54'6 6.4
2016-May-03 22:33N 46°30' W 001°48'0 0.5
2016-May-03 21:33N 46°30' W 001°47'4 3.6
2016-May-03 20:33N 46°26' W 001°47'2 2.1
2016-May-03 19:33N 46°24' W 001°46'9 8.8
2016-May-03 18:33N 46°16' W 001°43'  
Track history (hours):
 
Tides and Currents Weather Stations Pressure Air Temp Water Temp Dewpoint Dewpoint Depression Visibility Wind Speed Wind Dir Waves Ship Positions

F/V Jeremi Simon

Last reported at 2016-May-12 10:33 UTC. Time now 2016-May-24 07:59 UTC.
Position N 46°09' W 001°13'.
Warning: this ship's position is 11 days out of date.

Length 20 m.

Type: Other ship. MMSI: 227415000.

Date/timePositionNaut miles runAvg speedWind from/ knotsBaromVisibWave heightAir tempDewpointWater temp
2016-May-12 10:33N 46°09' W 001°13'  
2016-May-09 06:22N 46°09' W 001°13'0 0.0
2016-May-09 05:33N 46°09' W 001°13'0 0.0
2016-May-09 04:33N 46°09' W 001°13'1 1.2
2016-May-09 03:33N 46°09' W 001°15'0 0.3
2016-May-09 02:33N 46°09' W 001°15'5 4.5
2016-May-09 01:33N 46°07' W 001°20'1110.4
2016-May-09 00:32N 46°11' W 001°34'8 8.0
2016-May-08 23:33N 46°17' W 001°41'8 8.5
2016-May-08 22:33N 46°24' W 001°48'8 8.1
2016-May-08 21:33N 46°31' W 001°53'9 8.6
2016-May-08 20:33N 46°40' W 001°57'  
2016-May-04 03:06N 46°42' W 001°57'0 0.1
2016-May-04 02:33N 46°42' W 001°56'0 0.0
2016-May-04 01:33N 46°42' W 001°56'0 0.0
2016-May-04 00:33N 46°42' W 001°57'8 7.6
2016-May-03 23:33N 46°34' W 001°54'6 6.4
2016-May-03 22:33N 46°30' W 001°48'0 0.5
2016-May-03 21:33N 46°30' W 001°47'4 3.6
2016-May-03 20:33N 46°26' W 001°47'2 2.1
2016-May-03 19:33N 46°24' W 001°46'9 8.8
2016-May-03 18:33N 46°16' W 001°43'  

Dump ship's entire track history